Roebourne, Australia
Current Conditions -  °F | °C
As of 7:00 PM on Friday 28 Nov 2014 (Local Time) from YPPD Reporting Station
Clear Clear  
Wind Chill: 84°   Ceiling: Unl
Heat Index: 91°   Visibility: 6mi
Dew Point: 73°   Wind: 17mph
Humidity: 70%   Direction: 290°WNW
Pressure: 29.77"   Gusts: NA
Location:  20.78°S, 117.15°E
Report Text: YPPD 281100Z AUTO 29015KT 9999 // NCD 29/23 Q1008
Loading
Personal Weather Stations






























Interactive Weather Map New forecast layout! Learn more

10-Day Weather Forecast

Advertisements
Track Severe Weather on mobile